createdAt,value
2023-03-18T00:00:05.485Z,6.20
2023-03-18T00:01:05.441Z,5.50
2023-03-18T00:02:05.398Z,7.20
2023-03-18T00:03:05.363Z,7.30
2023-03-18T00:04:05.455Z,6.30
2023-03-18T00:05:05.285Z,5.80
2023-03-18T00:06:05.256Z,6.20
2023-03-18T00:07:05.210Z,6.40
2023-03-18T00:08:05.159Z,7.00
2023-03-18T00:09:05.117Z,6.30
2023-03-18T00:10:05.122Z,7.70
2023-03-18T00:11:05.041Z,6.40
2023-03-18T00:12:05.010Z,7.60
2023-03-18T00:13:04.988Z,7.90
2023-03-18T00:14:04.924Z,6.30
2023-03-18T00:15:04.868Z,8.80
2023-03-18T00:16:04.880Z,8.30
2023-03-18T00:17:04.808Z,6.00
2023-03-18T00:18:04.815Z,6.90
2023-03-18T00:19:04.748Z,6.60
2023-03-18T00:20:04.697Z,6.10
2023-03-18T00:21:04.649Z,6.90
2023-03-18T00:22:04.598Z,6.70
2023-03-18T00:23:04.559Z,8.00
2023-03-18T00:24:04.516Z,7.10
2023-03-18T00:25:04.471Z,7.00
2023-03-18T00:26:04.454Z,7.60
2023-03-18T00:27:04.423Z,6.30
2023-03-18T00:28:04.370Z,8.20
2023-03-18T00:29:04.360Z,7.20
2023-03-18T00:30:04.273Z,7.20
2023-03-18T00:31:04.284Z,6.00
2023-03-18T00:32:04.219Z,7.20
2023-03-18T00:33:04.225Z,8.60
2023-03-18T00:34:04.123Z,7.00
2023-03-18T00:35:04.069Z,8.30
2023-03-18T00:36:04.094Z,6.20
2023-03-18T00:37:04.004Z,8.00
2023-03-18T00:38:04.018Z,7.60
2023-03-18T00:39:03.928Z,5.70
2023-03-18T00:40:03.887Z,7.30
2023-03-18T00:41:03.844Z,6.60
2023-03-18T00:42:03.795Z,6.20
2023-03-18T01:09:08.675Z,6.60
2023-03-18T01:10:08.701Z,6.80
2023-03-18T01:11:08.481Z,6.90
2023-03-18T01:12:08.333Z,6.40
2023-03-18T01:13:09.171Z,8.30
2023-03-18T01:14:08.615Z,7.40
2023-03-18T01:15:08.477Z,7.20
2023-03-18T01:16:09.670Z,8.30
2023-03-18T01:17:09.324Z,7.20
2023-03-18T01:18:10.683Z,7.80
2023-03-18T01:19:12.184Z,10.20
2023-03-18T01:26:59.933Z,8.80
2023-03-18T01:27:59.238Z,10.00
2023-03-18T01:28:59.162Z,7.50
2023-03-18T01:29:59.089Z,8.90
2023-03-18T01:30:59.237Z,7.00
2023-03-18T01:31:59.875Z,6.90
2023-03-18T01:32:59.466Z,7.00
2023-03-18T01:33:59.515Z,6.10
2023-03-18T01:34:59.376Z,6.50
2023-03-18T01:35:59.351Z,8.70
2023-03-18T01:37:00.818Z,9.20
2023-03-18T01:39:06.365Z,6.00
2023-03-18T01:40:11.365Z,6.80
2023-03-18T03:50:32.069Z,6.10
2023-03-18T03:51:25.792Z,8.80
2023-03-18T03:52:25.407Z,10.50
2023-03-18T03:53:25.253Z,13.00
2023-03-18T03:54:25.854Z,8.90
2023-03-18T03:55:25.692Z,12.50
2023-03-18T03:56:25.027Z,9.60
2023-03-18T03:57:25.628Z,10.60
2023-03-18T03:58:37.360Z,10.20
2023-03-18T03:59:33.332Z,9.40
2023-03-18T04:00:30.025Z,12.00
2023-03-18T04:02:33.333Z,9.90
2023-03-18T04:07:09.326Z,10.40
2023-03-18T04:07:27.303Z,10.90
2023-03-18T04:08:25.158Z,10.50
2023-03-18T04:09:25.807Z,10.70
2023-03-18T04:10:28.322Z,10.70
2023-03-18T04:11:27.294Z,12.60
2023-03-18T04:13:56.740Z,9.30
2023-03-18T04:14:57.948Z,10.40
2023-03-18T04:15:57.392Z,11.70
2023-03-18T04:17:02.089Z,13.00
2023-03-18T04:17:58.525Z,10.00
2023-03-18T04:24:44.897Z,11.20
2023-03-18T05:03:37.581Z,11.80
2023-03-18T05:04:36.518Z,11.90
2023-03-18T05:06:39.166Z,13.00
2023-03-18T05:07:34.612Z,13.10
2023-03-18T05:08:34.321Z,10.00
2023-03-18T05:09:34.959Z,10.90
2023-03-18T05:10:34.559Z,12.50
2023-03-18T05:11:34.471Z,11.00
2023-03-18T05:12:36.512Z,10.30
2023-03-18T05:31:53.393Z,11.70
2023-03-18T05:32:53.233Z,12.20
2023-03-18T05:33:53.681Z,10.50
2023-03-18T05:34:53.888Z,13.10
2023-03-18T05:35:53.644Z,10.80
2023-03-18T05:36:53.789Z,12.30
2023-03-18T05:37:53.853Z,11.00
2023-03-18T05:38:53.898Z,10.30
2023-03-18T05:39:55.363Z,10.60
2023-03-18T05:40:53.544Z,9.30
2023-03-18T05:41:56.340Z,11.30
2023-03-18T05:42:56.181Z,9.10
2023-03-18T05:43:54.844Z,10.50
2023-03-18T05:44:52.881Z,11.20
2023-03-18T06:20:17.782Z,9.90
2023-03-18T06:21:17.749Z,10.20
2023-03-18T06:22:18.167Z,12.80
2023-03-18T06:23:20.770Z,12.00
2023-03-18T06:31:03.524Z,9.80
2023-03-18T06:32:03.558Z,11.40
2023-03-18T06:33:03.580Z,10.80
2023-03-18T06:34:03.440Z,13.90
2023-03-18T06:35:03.256Z,12.20
2023-03-18T06:36:47.256Z,10.00
2023-03-18T06:37:07.643Z,9.30
2023-03-18T06:38:06.313Z,9.80
2023-03-18T06:39:05.325Z,10.60
2023-03-18T06:41:13.845Z,10.90
2023-03-18T06:42:15.540Z,9.60
2023-03-18T06:43:11.903Z,6.90
2023-03-18T06:44:02.002Z,7.50
2023-03-18T06:45:01.981Z,8.60
2023-03-18T06:46:01.989Z,7.10
2023-03-18T06:47:01.891Z,8.20
2023-03-18T06:48:01.858Z,9.90
2023-03-18T06:49:01.804Z,8.80
2023-03-18T06:50:01.762Z,9.10
2023-03-18T06:51:01.751Z,8.90
2023-03-18T06:52:01.691Z,7.90
2023-03-18T06:53:01.655Z,8.50
2023-03-18T06:54:01.620Z,10.10
2023-03-18T06:55:01.573Z,7.70
2023-03-18T06:56:01.541Z,8.00
2023-03-18T06:57:01.508Z,7.90
2023-03-18T06:58:01.480Z,9.00
2023-03-18T06:59:01.419Z,10.50
2023-03-18T07:00:01.400Z,8.80
2023-03-18T07:01:01.376Z,9.90
2023-03-18T07:02:01.293Z,7.00
2023-03-18T07:03:01.281Z,8.20
2023-03-18T07:04:01.272Z,8.80
2023-03-18T07:05:01.184Z,8.50
2023-03-18T07:06:01.131Z,7.20
2023-03-18T07:07:01.099Z,6.30
2023-03-18T07:08:01.074Z,7.60
2023-03-18T07:09:01.040Z,6.80
2023-03-18T07:10:01.006Z,8.40
2023-03-18T07:11:00.943Z,6.20
2023-03-18T07:12:00.919Z,7.60
2023-03-18T07:13:00.877Z,6.40
2023-03-18T07:14:00.830Z,5.40
2023-03-18T07:15:00.826Z,6.30
2023-03-18T07:16:00.817Z,6.00
2023-03-18T07:17:00.739Z,5.10
2023-03-18T07:18:00.712Z,5.80
2023-03-18T07:19:00.649Z,5.50
2023-03-18T07:20:00.614Z,5.20
2023-03-18T07:21:00.625Z,5.80
2023-03-18T07:22:00.545Z,5.20
2023-03-18T07:23:00.501Z,8.30
2023-03-18T07:24:00.473Z,5.70
2023-03-18T07:25:00.442Z,5.20
2023-03-18T07:26:00.406Z,4.80
2023-03-18T07:27:00.376Z,5.30
2023-03-18T07:28:00.347Z,6.60
2023-03-18T07:29:00.297Z,5.10
2023-03-18T07:30:00.265Z,5.90
2023-03-18T07:31:00.258Z,6.40
2023-03-18T07:32:00.194Z,6.00
2023-03-18T07:33:00.247Z,5.60
2023-03-18T07:34:00.122Z,5.20
2023-03-18T07:35:00.114Z,5.10
2023-03-18T07:36:00.086Z,3.80
2023-03-18T07:37:00.021Z,5.60
2023-03-18T07:37:59.992Z,5.70
2023-03-18T07:39:00.034Z,5.30
2023-03-18T07:39:59.924Z,4.90
2023-03-18T07:40:59.882Z,5.10
2023-03-18T07:41:59.850Z,6.00
2023-03-18T07:42:59.820Z,4.50
2023-03-18T07:43:59.787Z,5.00
2023-03-18T07:44:59.763Z,5.00
2023-03-18T07:45:59.720Z,4.60
2023-03-18T07:46:59.681Z,5.80
2023-03-18T07:47:59.662Z,5.90
2023-03-18T07:48:59.610Z,4.80
2023-03-18T07:49:59.588Z,5.00
2023-03-18T07:50:59.572Z,5.90
2023-03-18T07:51:59.525Z,5.80
2023-03-18T07:52:59.477Z,5.20
2023-03-18T07:53:59.453Z,5.20
2023-03-18T07:54:59.414Z,6.90
2023-03-18T07:55:59.382Z,5.80
2023-03-18T07:56:59.375Z,4.90
2023-03-18T07:57:59.318Z,5.00
2023-03-18T07:58:59.291Z,6.30
2023-03-18T07:59:59.259Z,4.40
2023-03-18T08:00:59.221Z,5.50
2023-03-18T08:01:59.188Z,4.90
2023-03-18T08:02:59.172Z,5.00
2023-03-18T08:03:59.157Z,5.40
2023-03-18T08:04:59.128Z,4.40
2023-03-18T08:05:59.054Z,4.60
2023-03-18T08:06:59.019Z,4.00
2023-03-18T08:07:59.001Z,4.90
2023-03-18T08:08:58.975Z,3.90
2023-03-18T08:09:58.925Z,3.90
2023-03-18T08:10:58.893Z,3.70
2023-03-18T08:11:58.867Z,5.30
2023-03-18T08:12:58.825Z,5.00
2023-03-18T08:13:58.805Z,4.30
2023-03-18T08:14:58.770Z,5.30
2023-03-18T08:15:58.814Z,5.60
2023-03-18T08:16:58.706Z,4.50
2023-03-18T08:17:58.673Z,3.90
2023-03-18T08:18:58.897Z,4.20
2023-03-18T08:19:58.595Z,4.70
2023-03-18T08:20:58.579Z,4.30
2023-03-18T08:21:58.536Z,5.40
2023-03-18T08:22:58.502Z,4.10
2023-03-18T08:23:58.468Z,5.00
2023-03-18T08:24:58.438Z,6.10
2023-03-18T08:25:58.406Z,5.00
2023-03-18T08:26:58.378Z,4.80
2023-03-18T08:27:58.392Z,4.00
2023-03-18T08:28:58.301Z,4.30
2023-03-18T08:29:58.275Z,4.00
2023-03-18T08:30:58.236Z,5.10
2023-03-18T08:31:58.222Z,5.20
2023-03-18T08:32:58.214Z,4.00
2023-03-18T08:33:58.153Z,3.90
2023-03-18T08:34:58.119Z,5.70
2023-03-18T08:35:58.175Z,5.60
2023-03-18T08:36:58.058Z,6.50
2023-03-18T08:37:58.019Z,4.00
2023-03-18T08:38:57.978Z,4.80
2023-03-18T08:39:57.950Z,3.80
2023-03-18T08:40:57.942Z,7.40
2023-03-18T08:41:57.917Z,3.60
2023-03-18T08:42:57.861Z,5.30
2023-03-18T08:43:57.824Z,4.90
2023-03-18T08:44:57.791Z,5.20
2023-03-18T08:45:57.811Z,4.40
2023-03-18T08:46:57.724Z,4.20
2023-03-18T08:47:57.717Z,4.40
2023-03-18T08:48:57.662Z,5.40
2023-03-18T08:50:02.687Z,4.80
2023-03-18T08:50:57.670Z,4.40
2023-03-18T08:51:57.750Z,4.30
2023-03-18T08:52:57.593Z,4.30
2023-03-18T08:54:06.533Z,4.30
2023-03-18T08:54:57.469Z,3.30
2023-03-18T08:55:57.507Z,5.00
2023-03-18T08:56:57.468Z,3.80
2023-03-18T08:57:57.560Z,4.70
2023-03-18T08:58:57.340Z,4.40
2023-03-18T08:59:57.319Z,3.70
2023-03-18T09:00:57.326Z,4.90
2023-03-18T09:01:57.264Z,4.30
2023-03-18T09:02:57.218Z,4.50
2023-03-18T09:03:57.183Z,4.60
2023-03-18T09:04:57.161Z,3.80
2023-03-18T09:05:57.113Z,4.50
2023-03-18T09:06:57.077Z,3.50
2023-03-18T09:07:57.047Z,3.80
2023-03-18T09:08:57.023Z,5.50
2023-03-18T09:09:59.688Z,4.20
2023-03-18T09:10:56.967Z,3.70
2023-03-18T09:11:56.924Z,3.40
2023-03-18T09:12:56.915Z,3.40
2023-03-18T09:13:56.885Z,3.80
2023-03-18T09:14:56.838Z,2.70
2023-03-18T09:15:56.804Z,3.60
2023-03-18T09:16:56.854Z,3.10
2023-03-18T09:18:10.344Z,3.20
2023-03-18T09:18:56.724Z,3.20
2023-03-18T09:19:56.682Z,3.20
2023-03-18T09:20:57.824Z,4.20
2023-03-18T09:21:56.657Z,4.20
2023-03-18T09:25:32.959Z,4.40
2023-03-18T09:26:33.241Z,3.10
2023-03-18T09:27:32.668Z,3.50
2023-03-18T09:28:32.738Z,4.10
2023-03-18T09:29:32.825Z,3.20
2023-03-18T09:30:32.682Z,3.40
2023-03-18T09:31:32.560Z,3.30
2023-03-18T09:32:32.565Z,4.70
2023-03-18T09:33:32.578Z,3.80
2023-03-18T09:34:32.463Z,4.40
2023-03-18T09:35:32.699Z,4.20
2023-03-18T09:36:36.248Z,3.30
2023-03-18T09:37:33.320Z,4.10
2023-03-18T09:38:33.248Z,4.10
2023-03-18T09:39:32.317Z,3.30
2023-03-18T09:40:32.275Z,3.50
2023-03-18T09:44:36.887Z,2.90
2023-03-18T09:45:36.818Z,3.30
2023-03-18T09:46:37.037Z,3.80
2023-03-18T09:47:36.763Z,3.60
2023-03-18T09:48:36.735Z,3.30
2023-03-18T09:49:36.720Z,3.70
2023-03-18T09:50:36.674Z,2.50
2023-03-18T09:51:36.684Z,3.00
2023-03-18T09:52:36.607Z,2.50
2023-03-18T09:58:05.415Z,2.90
2023-03-18T09:59:05.306Z,3.80
2023-03-18T10:00:05.239Z,3.20
2023-03-18T10:01:05.478Z,2.60
2023-03-18T10:02:13.428Z,3.40
2023-03-18T10:03:07.321Z,3.50
2023-03-18T10:04:10.075Z,3.20
2023-03-18T10:05:23.930Z,3.30
2023-03-18T10:06:12.468Z,3.00
2023-03-18T10:07:08.464Z,3.80
2023-03-18T10:08:10.489Z,3.90
2023-03-18T10:09:09.950Z,3.20
2023-03-18T10:10:07.936Z,3.50
2023-03-18T10:11:09.440Z,2.90
2023-03-18T10:12:08.438Z,3.60
2023-03-18T10:13:06.461Z,3.00
2023-03-18T10:14:11.961Z,4.10
2023-03-18T10:15:13.966Z,3.70
2023-03-18T10:16:22.027Z,3.10
2023-03-18T10:18:17.980Z,2.90
2023-03-18T10:19:13.980Z,3.40
2023-03-18T10:20:27.990Z,3.30
2023-03-18T10:21:09.169Z,2.60
2023-03-18T10:22:12.964Z,4.60
2023-03-18T10:25:20.832Z,3.60
2023-03-18T10:26:17.990Z,4.20
2023-03-18T10:29:21.952Z,5.00
2023-03-18T10:33:40.057Z,3.10
2023-03-18T10:34:40.414Z,2.50
2023-03-18T10:35:40.496Z,3.90
2023-03-18T10:36:40.182Z,3.40
2023-03-18T10:37:40.745Z,3.80
2023-03-18T10:38:42.960Z,2.60
2023-03-18T10:40:01.954Z,2.60
2023-03-18T10:40:57.966Z,3.20
2023-03-18T10:41:50.965Z,3.90
2023-03-18T10:42:48.952Z,3.00
2023-03-18T10:43:52.470Z,2.70
2023-03-18T10:44:50.994Z,2.50
2023-03-18T10:45:41.062Z,3.30
2023-03-18T10:46:45.075Z,3.60
2023-03-18T10:47:42.977Z,3.10
2023-03-18T10:48:43.456Z,2.60
2023-03-18T10:49:43.468Z,4.00
2023-03-18T10:50:42.513Z,2.90
2023-03-18T10:51:43.963Z,2.90
2023-03-18T10:52:44.031Z,3.20
2023-03-18T10:53:56.508Z,4.20
2023-03-18T10:54:44.468Z,2.80
2023-03-18T10:55:42.992Z,5.60
2023-03-18T10:56:41.970Z,3.20
2023-03-18T10:57:43.001Z,3.10
2023-03-18T10:58:51.011Z,3.40
2023-03-18T10:59:40.162Z,2.80
2023-03-18T11:02:30.736Z,2.80
2023-03-18T11:03:30.690Z,3.70
2023-03-18T11:04:30.522Z,2.70
2023-03-18T11:05:32.873Z,3.60
2023-03-18T11:06:35.683Z,2.60
2023-03-18T11:07:54.693Z,2.80
2023-03-18T11:08:33.186Z,3.50
2023-03-18T11:09:36.692Z,2.20
2023-03-18T11:10:35.039Z,2.90
2023-03-18T11:11:39.726Z,2.20
2023-03-18T11:12:38.211Z,2.30
2023-03-18T11:13:36.187Z,3.10
2023-03-18T11:14:34.710Z,3.10
2023-03-18T11:15:37.195Z,2.10
2023-03-18T11:16:34.268Z,2.40
2023-03-18T11:17:35.192Z,2.60
2023-03-18T11:18:31.699Z,3.30
2023-03-18T11:19:34.715Z,3.20
2023-03-18T11:20:39.712Z,2.60
2023-03-18T11:21:31.690Z,2.50
2023-03-18T11:22:31.354Z,2.80
2023-03-18T11:23:35.200Z,2.10
2023-03-18T11:24:31.709Z,3.20
2023-03-18T11:25:33.706Z,3.20
2023-03-18T11:26:32.718Z,2.30
2023-03-18T11:27:31.002Z,2.70
2023-03-18T11:28:31.198Z,2.40
2023-03-18T11:29:32.078Z,3.10
2023-03-18T11:30:36.841Z,4.40
2023-03-18T11:31:32.762Z,2.90
2023-03-18T11:32:32.745Z,3.00
2023-03-18T11:33:30.797Z,2.10
2023-03-18T11:34:30.712Z,3.20
2023-03-18T11:35:33.233Z,2.90
2023-03-18T11:36:34.715Z,3.00
2023-03-18T11:37:32.729Z,2.60
2023-03-18T11:38:39.706Z,2.50
2023-03-18T11:39:32.730Z,2.50
2023-03-18T11:40:31.771Z,2.50
2023-03-18T11:41:40.198Z,2.20
2023-03-18T11:42:31.710Z,3.20
2023-03-18T11:43:31.199Z,3.00
2023-03-18T11:44:32.707Z,2.80
2023-03-18T11:45:32.700Z,3.30
2023-03-18T11:46:31.724Z,3.30
2023-03-18T11:47:29.938Z,2.60
2023-03-18T11:48:31.703Z,2.80
2023-03-18T11:49:29.945Z,2.90
2023-03-18T11:50:31.482Z,2.90
2023-03-18T11:51:31.739Z,3.00
2023-03-18T11:52:30.120Z,2.80
2023-03-18T11:53:31.472Z,2.00
2023-03-18T11:54:37.705Z,1.90
2023-03-18T11:55:39.711Z,3.40
2023-03-18T11:56:31.728Z,3.00
2023-03-18T11:57:35.290Z,2.90
2023-03-18T11:58:31.788Z,3.90
2023-03-18T11:59:32.743Z,2.50
2023-03-18T12:00:34.722Z,3.40
2023-03-18T12:01:34.221Z,2.00
2023-03-18T12:02:31.215Z,4.10
2023-03-18T12:03:33.232Z,2.30
2023-03-18T12:04:32.739Z,4.20
2023-03-18T12:05:30.850Z,4.40
2023-03-18T12:06:29.434Z,3.50
2023-03-18T12:07:32.257Z,2.70
2023-03-18T12:08:29.507Z,2.40
2023-03-18T12:09:30.720Z,2.70
2023-03-18T12:10:29.975Z,3.60
2023-03-18T12:11:32.217Z,2.80
2023-03-18T12:12:29.389Z,2.50
2023-03-18T12:13:29.434Z,3.90
2023-03-18T12:14:29.359Z,4.20
2023-03-18T12:15:29.428Z,3.20
2023-03-18T12:16:33.256Z,3.10
2023-03-18T12:17:30.732Z,3.90
2023-03-18T12:18:28.870Z,3.60
2023-03-18T12:19:29.230Z,3.30
2023-03-18T12:20:33.945Z,3.70
2023-03-18T12:21:32.740Z,4.40
2023-03-18T12:22:29.733Z,3.30
2023-03-18T12:23:30.957Z,3.10
2023-03-18T12:24:29.242Z,3.00
2023-03-18T12:25:28.190Z,4.50
2023-03-18T12:26:29.099Z,2.50
2023-03-18T12:27:30.228Z,3.00
2023-03-18T12:28:32.227Z,5.40
2023-03-18T12:29:29.764Z,4.80
2023-03-18T12:30:44.847Z,7.00
2023-03-18T12:31:29.834Z,4.20
2023-03-18T12:32:28.627Z,4.40
2023-03-18T12:33:29.238Z,3.70
2023-03-18T12:34:29.732Z,3.90
2023-03-18T12:35:29.744Z,4.20
2023-03-18T12:36:30.246Z,3.20
2023-03-18T12:37:34.730Z,2.90
2023-03-18T12:38:33.739Z,3.20
2023-03-18T12:39:33.238Z,3.90
2023-03-18T12:40:36.270Z,3.40
2023-03-18T12:41:37.060Z,3.60
2023-03-18T12:43:36.867Z,4.40
2023-03-18T12:44:27.427Z,3.80
2023-03-18T12:45:27.383Z,3.20
2023-03-18T12:46:27.468Z,4.70
2023-03-18T12:47:27.281Z,3.20
2023-03-18T12:48:42.739Z,4.00
2023-03-18T12:49:27.190Z,2.90
2023-03-18T12:50:27.174Z,4.40
2023-03-18T12:51:27.173Z,4.00
2023-03-18T12:52:27.116Z,3.20
2023-03-18T12:53:27.077Z,3.20
2023-03-18T12:54:27.032Z,3.00
2023-03-18T12:55:27.025Z,4.30
2023-03-18T12:56:26.968Z,4.00
2023-03-18T12:57:26.950Z,3.60
2023-03-18T12:58:26.892Z,2.40
2023-03-18T12:59:26.854Z,2.80
2023-03-18T13:00:26.974Z,3.60
2023-03-18T13:01:26.893Z,3.80
2023-03-18T13:02:26.853Z,3.20
2023-03-18T13:03:26.716Z,4.90
2023-03-18T13:04:26.702Z,3.50
2023-03-18T13:05:26.650Z,4.50
2023-03-18T13:06:26.650Z,4.90
2023-03-18T13:07:26.605Z,4.50
2023-03-18T13:08:26.546Z,3.50
2023-03-18T13:09:26.503Z,3.30
2023-03-18T13:10:26.505Z,3.50
2023-03-18T13:11:26.444Z,4.70
2023-03-18T13:12:26.418Z,4.40
2023-03-18T13:13:26.373Z,3.70
2023-03-18T13:14:26.349Z,2.70
2023-03-18T13:15:26.303Z,5.00
2023-03-18T13:16:26.292Z,2.70
2023-03-18T13:17:26.243Z,3.60
2023-03-18T13:18:26.190Z,2.90
2023-03-18T13:19:26.157Z,3.40
2023-03-18T13:20:26.167Z,3.50
2023-03-18T13:21:26.115Z,3.50
2023-03-18T13:22:26.141Z,2.60
2023-03-18T13:23:26.042Z,2.60
2023-03-18T13:24:25.994Z,3.20
2023-03-18T13:25:25.977Z,2.50
2023-03-18T13:26:25.913Z,3.80
2023-03-18T13:27:25.882Z,2.60
2023-03-18T13:28:25.866Z,2.80
2023-03-18T13:29:25.811Z,4.80
2023-03-18T13:30:25.854Z,3.30
2023-03-18T13:31:25.793Z,3.50
2023-03-18T13:32:25.712Z,3.10
2023-03-18T13:33:25.676Z,3.70
2023-03-18T13:34:25.690Z,3.20
2023-03-18T13:35:25.603Z,4.60
2023-03-18T13:36:25.582Z,5.00
2023-03-18T13:37:25.536Z,2.50
2023-03-18T13:38:25.492Z,2.80
2023-03-18T13:39:25.471Z,4.20
2023-03-18T13:40:25.555Z,4.20
2023-03-18T13:41:25.447Z,3.40
2023-03-18T13:42:25.374Z,3.20
2023-03-18T13:43:25.340Z,3.20
2023-03-18T13:44:25.309Z,3.40
2023-03-18T13:45:25.277Z,4.30
2023-03-18T13:46:25.280Z,3.80
2023-03-18T13:47:25.199Z,3.70
2023-03-18T13:48:25.148Z,3.40
2023-03-18T13:49:25.129Z,3.40
2023-03-18T13:50:25.098Z,3.10
2023-03-18T13:51:25.047Z,3.60
2023-03-18T13:52:25.018Z,4.00
2023-03-18T13:53:24.967Z,3.50
2023-03-18T13:54:24.958Z,4.00
2023-03-18T13:55:24.889Z,3.90
2023-03-18T13:56:24.893Z,3.20
2023-03-18T13:57:24.833Z,2.40
2023-03-18T13:58:24.812Z,4.30
2023-03-18T13:59:24.749Z,3.20
2023-03-18T14:00:24.717Z,2.70
2023-03-18T14:01:24.739Z,2.60
2023-03-18T14:02:24.651Z,3.80
2023-03-18T14:03:24.702Z,2.90
2023-03-18T14:04:24.566Z,3.40
2023-03-18T14:05:24.530Z,2.60
2023-03-18T14:06:24.514Z,3.30
2023-03-18T14:07:24.460Z,1.90
2023-03-18T14:08:24.436Z,5.40
2023-03-18T14:09:24.390Z,3.70
2023-03-18T14:10:24.415Z,3.60
2023-03-18T14:11:24.332Z,3.40
2023-03-18T14:12:24.286Z,4.20
2023-03-18T14:13:24.278Z,3.50
2023-03-18T14:14:24.207Z,3.80
2023-03-18T14:15:24.261Z,3.60
2023-03-18T14:16:24.235Z,3.40
2023-03-18T14:17:24.096Z,3.70
2023-03-18T14:18:25.992Z,3.90
2023-03-18T14:19:24.040Z,4.60
2023-03-18T14:20:24.101Z,4.30
2023-03-18T14:21:23.957Z,3.40
2023-03-18T14:22:23.922Z,3.60
2023-03-18T14:23:23.883Z,3.40
2023-03-18T14:24:23.855Z,2.90
2023-03-18T14:25:23.811Z,4.80
2023-03-18T14:26:23.778Z,3.50
2023-03-18T14:27:23.748Z,4.50
2023-03-18T14:28:23.705Z,2.80
2023-03-18T14:29:23.700Z,2.60
2023-03-18T14:30:23.666Z,2.80
2023-03-18T14:31:23.653Z,4.20
2023-03-18T14:32:23.558Z,3.50
2023-03-18T14:33:23.533Z,4.50
2023-03-18T14:34:23.501Z,4.80
2023-03-18T14:35:23.743Z,3.20
2023-03-18T14:36:23.417Z,3.00
2023-03-18T14:37:23.422Z,3.70
2023-03-18T14:38:23.359Z,4.70
2023-03-18T14:39:23.322Z,3.70
2023-03-18T14:40:23.297Z,5.10
2023-03-18T14:41:23.248Z,4.60
2023-03-18T14:42:23.240Z,8.40
2023-03-18T14:43:23.176Z,4.90
2023-03-18T14:44:25.914Z,9.90
2023-03-18T14:45:23.128Z,5.80
2023-03-18T14:46:23.130Z,8.40
2023-03-18T14:47:37.780Z,5.40
2023-03-18T14:48:23.031Z,4.70
2023-03-18T14:49:22.984Z,4.00
2023-03-18T14:50:22.948Z,4.60
2023-03-18T14:51:22.896Z,5.40
2023-03-18T14:52:22.894Z,4.20
2023-03-18T14:53:22.946Z,3.50
2023-03-18T14:54:22.814Z,4.80
2023-03-18T14:55:22.754Z,4.70
2023-03-18T14:56:22.719Z,5.80
2023-03-18T14:57:22.678Z,4.90
2023-03-18T14:58:22.642Z,4.90
2023-03-18T14:59:22.612Z,4.20
2023-03-18T15:00:22.586Z,4.40
2023-03-18T15:01:22.613Z,4.40
2023-03-18T15:02:22.557Z,5.60
2023-03-18T15:03:22.513Z,4.10
2023-03-18T15:04:22.425Z,4.00
2023-03-18T15:05:22.404Z,6.40
2023-03-18T15:06:22.369Z,21.60
2023-03-18T15:07:22.358Z,6.40
2023-03-18T15:08:22.303Z,5.90
2023-03-18T15:09:22.243Z,7.10
2023-03-18T15:10:22.224Z,5.70
2023-03-18T15:11:22.199Z,6.70
2023-03-18T15:12:22.156Z,4.20
2023-03-18T15:13:22.119Z,7.00
2023-03-18T15:14:22.080Z,3.70
2023-03-18T15:15:22.058Z,4.20
2023-03-18T15:16:22.013Z,5.30
2023-03-18T15:17:21.988Z,3.90
2023-03-18T15:18:21.932Z,4.70
2023-03-18T15:19:21.900Z,3.80
2023-03-18T15:20:21.870Z,4.10
2023-03-18T15:21:21.832Z,5.10
2023-03-18T15:22:21.825Z,6.00
2023-03-18T15:23:21.766Z,4.60
2023-03-18T15:24:21.708Z,4.90
2023-03-18T15:25:21.711Z,4.60
2023-03-18T15:26:21.682Z,4.10
2023-03-18T15:27:21.617Z,4.90
2023-03-18T15:28:21.628Z,4.40
2023-03-18T15:29:21.586Z,3.50
2023-03-18T15:30:21.508Z,5.30
2023-03-18T15:31:21.519Z,4.00
2023-03-18T15:32:21.468Z,4.60
2023-03-18T15:33:21.391Z,4.30
2023-03-18T15:34:21.388Z,3.50
2023-03-18T15:35:21.337Z,4.60
2023-03-18T15:36:21.287Z,2.80
2023-03-18T15:37:21.244Z,4.00
2023-03-18T15:38:21.235Z,4.20
2023-03-18T15:39:21.185Z,4.00
2023-03-18T15:40:23.942Z,3.90
2023-03-18T15:41:21.125Z,3.90
2023-03-18T15:42:21.064Z,2.70
2023-03-18T15:43:21.053Z,3.80
2023-03-18T15:44:20.999Z,3.80
2023-03-18T15:45:20.971Z,4.90
2023-03-18T15:46:21.096Z,4.70
2023-03-18T15:47:20.878Z,3.80
2023-03-18T15:48:20.876Z,4.10
2023-03-18T15:49:20.834Z,4.20
2023-03-18T15:50:20.833Z,3.30
2023-03-18T15:51:20.751Z,4.80
2023-03-18T15:52:20.750Z,6.70
2023-03-18T15:53:21.365Z,4.90
2023-03-18T15:54:20.645Z,6.70
2023-03-18T15:55:20.588Z,5.10
2023-03-18T15:56:20.570Z,5.80
2023-03-18T15:57:20.538Z,4.70
2023-03-18T15:58:20.488Z,4.60
2023-03-18T15:59:20.465Z,6.30
2023-03-18T16:00:20.445Z,4.30
2023-03-18T16:01:20.421Z,4.80
2023-03-18T16:02:20.355Z,4.10
2023-03-18T16:03:20.384Z,4.80
2023-03-18T16:04:20.286Z,4.10
2023-03-18T16:05:20.244Z,4.90
2023-03-18T16:06:20.185Z,4.10
2023-03-18T16:07:20.208Z,4.30
2023-03-18T16:08:20.145Z,3.90
2023-03-18T16:09:20.092Z,4.20
2023-03-18T16:10:20.047Z,4.80
2023-03-18T16:11:20.010Z,4.50
2023-03-18T16:12:19.969Z,6.10
2023-03-18T16:13:19.940Z,3.80
2023-03-18T16:14:19.906Z,4.70
2023-03-18T16:15:19.872Z,3.70
2023-03-18T16:16:19.848Z,4.50
2023-03-18T16:17:21.659Z,4.70
2023-03-18T16:18:19.759Z,4.50
2023-03-18T16:19:19.731Z,5.30
2023-03-18T16:20:19.671Z,4.30
2023-03-18T16:21:19.639Z,4.40
2023-03-18T16:22:19.602Z,4.40
2023-03-18T16:23:19.566Z,5.30
2023-03-18T16:24:19.527Z,4.80
2023-03-18T16:25:19.493Z,4.80
2023-03-18T16:26:19.444Z,4.20
2023-03-18T16:27:19.418Z,3.50
2023-03-18T16:28:19.382Z,4.00
2023-03-18T16:29:19.338Z,4.40
2023-03-18T16:30:19.313Z,4.40
2023-03-18T16:31:19.352Z,3.70
2023-03-18T16:32:19.256Z,4.80
2023-03-18T16:33:19.205Z,5.30
2023-03-18T16:34:21.673Z,5.30
2023-03-18T16:35:19.124Z,5.10
2023-03-18T16:36:19.075Z,3.90
2023-03-18T16:37:19.052Z,5.10
2023-03-18T16:38:19.052Z,3.70
2023-03-18T16:39:18.975Z,6.30
2023-03-18T16:40:18.919Z,3.90
2023-03-18T16:41:18.906Z,3.90
2023-03-18T16:42:18.873Z,4.80
2023-03-18T16:43:18.864Z,4.20
2023-03-18T16:44:18.795Z,4.40
2023-03-18T16:45:18.758Z,3.60
2023-03-18T16:46:18.760Z,4.30
2023-03-18T16:47:18.719Z,4.30
2023-03-18T16:48:18.640Z,6.70
2023-03-18T16:49:18.638Z,4.80
2023-03-18T16:50:18.561Z,3.40
2023-03-18T16:51:18.571Z,5.40
2023-03-18T16:52:18.514Z,3.70
2023-03-18T16:53:18.465Z,5.70
2023-03-18T16:54:18.427Z,3.60
2023-03-18T16:55:18.388Z,4.80
2023-03-18T16:56:18.366Z,5.50
2023-03-18T16:57:18.326Z,5.10
2023-03-18T16:58:18.261Z,4.90
2023-03-18T16:59:18.240Z,3.80
2023-03-18T17:00:18.204Z,5.10
2023-03-18T17:01:18.233Z,6.30
2023-03-18T17:02:18.118Z,4.20
2023-03-18T17:03:18.191Z,4.00
2023-03-18T17:04:18.125Z,4.70
2023-03-18T17:05:18.002Z,4.30
2023-03-18T17:06:17.985Z,5.30
2023-03-18T17:07:17.946Z,3.80
2023-03-18T17:08:17.923Z,6.00
2023-03-18T17:09:17.878Z,4.80
2023-03-18T17:10:17.845Z,4.60
2023-03-18T17:11:17.797Z,4.70
2023-03-18T17:12:17.762Z,6.50
2023-03-18T17:13:17.730Z,3.10
2023-03-18T17:14:17.693Z,5.60
2023-03-18T17:15:17.643Z,3.90
2023-03-18T17:16:17.636Z,4.40
2023-03-18T17:17:17.584Z,4.60
2023-03-18T17:18:17.555Z,4.20
2023-03-18T17:19:17.621Z,3.90
2023-03-18T17:20:17.480Z,4.50
2023-03-18T17:21:17.465Z,5.90
2023-03-18T17:22:17.383Z,4.20
2023-03-18T17:23:17.397Z,4.90
2023-03-18T17:24:17.529Z,4.70
2023-03-18T17:25:17.337Z,4.90
2023-03-18T17:26:17.247Z,3.10
2023-03-18T17:27:17.197Z,4.00
2023-03-18T17:28:17.172Z,4.60
2023-03-18T17:29:17.145Z,5.30
2023-03-18T17:30:17.087Z,5.60
2023-03-18T17:31:17.169Z,4.80
2023-03-18T17:32:17.002Z,5.20
2023-03-18T17:33:16.982Z,4.80
2023-03-18T17:34:16.976Z,6.70
2023-03-18T17:35:16.926Z,4.00
2023-03-18T17:36:16.878Z,6.70
2023-03-18T17:37:16.843Z,5.00
2023-03-18T17:38:16.778Z,5.60
2023-03-18T17:39:16.793Z,5.30
2023-03-18T17:40:16.707Z,4.60
2023-03-18T17:41:16.693Z,4.80
2023-03-18T17:42:16.678Z,4.00
2023-03-18T17:43:16.585Z,4.30
2023-03-18T17:44:16.545Z,4.60
2023-03-18T17:45:16.620Z,5.90
2023-03-18T17:46:16.679Z,4.60
2023-03-18T17:47:16.443Z,4.20
2023-03-18T17:48:16.437Z,3.80
2023-03-18T17:49:16.452Z,3.70
2023-03-18T17:50:16.352Z,6.70
2023-03-18T17:51:16.387Z,5.50
2023-03-18T17:52:16.318Z,4.00
2023-03-18T17:53:16.439Z,4.80
2023-03-18T17:54:16.376Z,4.40
2023-03-18T17:55:16.248Z,6.40
2023-03-18T17:56:16.241Z,5.10
2023-03-18T17:57:16.460Z,4.30
2023-03-18T17:58:16.040Z,5.50
2023-03-18T17:59:16.374Z,3.60
2023-03-18T18:00:16.041Z,5.10
2023-03-18T18:01:16.134Z,4.80
2023-03-18T18:02:15.986Z,4.10
2023-03-18T18:03:16.207Z,6.30
2023-03-18T18:04:15.920Z,3.80
2023-03-18T18:05:15.851Z,4.40
2023-03-18T18:06:15.800Z,5.70
2023-03-18T18:07:15.733Z,5.10
2023-03-18T18:08:15.796Z,3.90
2023-03-18T18:09:15.659Z,4.80
2023-03-18T18:10:15.669Z,5.10
2023-03-18T18:11:15.687Z,4.10